sensor_id;sensor_type;location;lat;lon;timestamp;temperature;humidity
45137;DHT22;30894;51.740;19.498;2022-10-16T00:02:14;13.80;99.10
45137;DHT22;30894;51.740;19.498;2022-10-16T00:04:43;13.70;99.50
45137;DHT22;30894;51.740;19.498;2022-10-16T00:07:17;13.60;99.90
45137;DHT22;30894;51.740;19.498;2022-10-16T00:09:51;13.40;99.90
45137;DHT22;30894;51.740;19.498;2022-10-16T00:12:49;13.30;99.90
45137;DHT22;30894;51.740;19.498;2022-10-16T00:15:24;13.20;99.90
45137;DHT22;30894;51.740;19.498;2022-10-16T00:17:50;13.20;99.90
45137;DHT22;30894;51.740;19.498;2022-10-16T00:20:24;13.10;99.90
45137;DHT22;30894;51.740;19.498;2022-10-16T00:22:59;13.00;99.90
45137;DHT22;30894;51.740;19.498;2022-10-16T00:25:25;12.90;99.90
45137;DHT22;30894;51.740;19.498;2022-10-16T00:28:00;12.80;99.90
45137;DHT22;30894;51.740;19.498;2022-10-16T00:30:29;12.70;99.90
45137;DHT22;30894;51.740;19.498;2022-10-16T00:33:04;12.70;99.90
45137;DHT22;30894;51.740;19.498;2022-10-16T00:35:31;12.60;99.90
45137;DHT22;30894;51.740;19.498;2022-10-16T00:38:05;12.50;99.90
45137;DHT22;30894;51.740;19.498;2022-10-16T00:40:34;12.50;99.90
45137;DHT22;30894;51.740;19.498;2022-10-16T00:43:13;12.40;99.90
45137;DHT22;30894;51.740;19.498;2022-10-16T00:45:56;12.40;99.90
45137;DHT22;30894;51.740;19.498;2022-10-16T00:48:22;12.30;99.90
45137;DHT22;30894;51.740;19.498;2022-10-16T00:50:58;12.10;99.90
45137;DHT22;30894;51.740;19.498;2022-10-16T00:53:27;12.20;99.90
45137;DHT22;30894;51.740;19.498;2022-10-16T00:56:01;12.10;99.90
45137;DHT22;30894;51.740;19.498;2022-10-16T00:58:30;12.10;99.90
45137;DHT22;30894;51.740;19.498;2022-10-16T01:01:03;12.00;99.90
45137;DHT22;30894;51.740;19.498;2022-10-16T01:03:32;12.00;99.90
45137;DHT22;30894;51.740;19.498;2022-10-16T01:11:57;11.90;99.90
45137;DHT22;30894;51.740;19.498;2022-10-16T01:14:54;11.90;99.90
45137;DHT22;30894;51.740;19.498;2022-10-16T01:20:44;11.80;99.90
45137;DHT22;30894;51.740;19.498;2022-10-16T01:29:16;11.70;99.90
45137;DHT22;30894;51.740;19.498;2022-10-16T01:31:54;11.60;99.90
45137;DHT22;30894;51.740;19.498;2022-10-16T01:35:14;11.60;99.90
45137;DHT22;30894;51.740;19.498;2022-10-16T01:37:52;11.60;99.90
45137;DHT22;30894;51.740;19.498;2022-10-16T01:40:24;11.60;99.90
45137;DHT22;30894;51.740;19.498;2022-10-16T01:43:12;11.60;99.90
45137;DHT22;30894;51.740;19.498;2022-10-16T01:45:42;11.60;99.90
45137;DHT22;30894;51.740;19.498;2022-10-16T01:48:13;11.50;99.90
45137;DHT22;30894;51.740;19.498;2022-10-16T01:50:44;11.50;99.90
45137;DHT22;30894;51.740;19.498;2022-10-16T01:53:30;11.50;99.90
45137;DHT22;30894;51.740;19.498;2022-10-16T01:56:00;11.50;99.90
45137;DHT22;30894;51.740;19.498;2022-10-16T01:58:33;11.50;99.90
45137;DHT22;30894;51.740;19.498;2022-10-16T02:01:05;11.50;99.90
45137;DHT22;30894;51.740;19.498;2022-10-16T02:03:37;11.40;99.90
45137;DHT22;30894;51.740;19.498;2022-10-16T02:06:06;11.40;99.90
45137;DHT22;30894;51.740;19.498;2022-10-16T02:08:40;11.40;99.90
45137;DHT22;30894;51.740;19.498;2022-10-16T02:11:10;11.40;99.90
45137;DHT22;30894;51.740;19.498;2022-10-16T02:13:45;11.40;99.90
45137;DHT22;30894;51.740;19.498;2022-10-16T02:16:14;11.40;99.90
45137;DHT22;30894;51.740;19.498;2022-10-16T02:18:43;11.40;99.90
45137;DHT22;30894;51.740;19.498;2022-10-16T02:27:25;11.30;99.90
45137;DHT22;30894;51.740;19.498;2022-10-16T02:30:26;11.30;99.90
45137;DHT22;30894;51.740;19.498;2022-10-16T02:33:09;11.30;99.90
45137;DHT22;30894;51.740;19.498;2022-10-16T02:35:37;11.30;99.90
45137;DHT22;30894;51.740;19.498;2022-10-16T02:38:14;11.30;99.90
45137;DHT22;30894;51.740;19.498;2022-10-16T02:40:41;11.30;99.90
45137;DHT22;30894;51.740;19.498;2022-10-16T02:43:10;11.30;99.90
45137;DHT22;30894;51.740;19.498;2022-10-16T02:45:46;11.30;99.90
45137;DHT22;30894;51.740;19.498;2022-10-16T02:48:15;11.30;99.90
45137;DHT22;30894;51.740;19.498;2022-10-16T02:50:44;11.30;99.90
45137;DHT22;30894;51.740;19.498;2022-10-16T02:53:10;11.30;99.90
45137;DHT22;30894;51.740;19.498;2022-10-16T02:55:47;11.30;99.90
45137;DHT22;30894;51.740;19.498;2022-10-16T02:58:18;11.30;99.90
45137;DHT22;30894;51.740;19.498;2022-10-16T03:00:53;11.30;99.90
45137;DHT22;30894;51.740;19.498;2022-10-16T03:03:21;11.30;99.90
45137;DHT22;30894;51.740;19.498;2022-10-16T03:05:54;11.40;99.90
45137;DHT22;30894;51.740;19.498;2022-10-16T03:08:28;11.40;99.90
45137;DHT22;30894;51.740;19.498;2022-10-16T03:10:58;11.40;99.90
45137;DHT22;30894;51.740;19.498;2022-10-16T03:13:31;11.50;99.90
45137;DHT22;30894;51.740;19.498;2022-10-16T03:16:00;11.50;99.90
45137;DHT22;30894;51.740;19.498;2022-10-16T03:18:33;11.70;99.90
45137;DHT22;30894;51.740;19.498;2022-10-16T03:21:02;11.80;99.90
45137;DHT22;30894;51.740;19.498;2022-10-16T03:23:35;11.90;99.90
45137;DHT22;30894;51.740;19.498;2022-10-16T03:26:04;12.10;99.90
45137;DHT22;30894;51.740;19.498;2022-10-16T03:28:37;12.20;99.90
45137;DHT22;30894;51.740;19.498;2022-10-16T03:31:06;12.30;99.90
45137;DHT22;30894;51.740;19.498;2022-10-16T03:33:41;12.30;99.90
45137;DHT22;30894;51.740;19.498;2022-10-16T03:36:10;12.50;99.90
45137;DHT22;30894;51.740;19.498;2022-10-16T03:38:43;12.50;99.90
45137;DHT22;30894;51.740;19.498;2022-10-16T03:41:16;12.60;99.90
45137;DHT22;30894;51.740;19.498;2022-10-16T03:43:45;12.60;99.90
45137;DHT22;30894;51.740;19.498;2022-10-16T03:46:19;12.70;99.90
45137;DHT22;30894;51.740;19.498;2022-10-16T03:48:47;12.70;99.90
45137;DHT22;30894;51.740;19.498;2022-10-16T03:51:21;12.80;99.90
45137;DHT22;30894;51.740;19.498;2022-10-16T03:53:50;12.80;99.90
45137;DHT22;30894;51.740;19.498;2022-10-16T03:56:23;12.90;99.90
45137;DHT22;30894;51.740;19.498;2022-10-16T03:58:52;12.90;99.90
45137;DHT22;30894;51.740;19.498;2022-10-16T04:01:26;12.90;99.90
45137;DHT22;30894;51.740;19.498;2022-10-16T04:03:54;13.00;99.90
45137;DHT22;30894;51.740;19.498;2022-10-16T04:06:27;13.00;99.90
45137;DHT22;30894;51.740;19.498;2022-10-16T04:09:00;13.00;99.90
45137;DHT22;30894;51.740;19.498;2022-10-16T04:11:29;13.00;99.90
45137;DHT22;30894;51.740;19.498;2022-10-16T04:14:04;13.10;99.90
45137;DHT22;30894;51.740;19.498;2022-10-16T04:16:33;13.10;99.90
45137;DHT22;30894;51.740;19.498;2022-10-16T04:19:09;13.20;99.90
45137;DHT22;30894;51.740;19.498;2022-10-16T04:21:36;13.20;99.90
45137;DHT22;30894;51.740;19.498;2022-10-16T04:24:05;13.30;99.90
45137;DHT22;30894;51.740;19.498;2022-10-16T04:26:31;13.30;99.90
45137;DHT22;30894;51.740;19.498;2022-10-16T04:29:08;13.40;99.90
45137;DHT22;30894;51.740;19.498;2022-10-16T04:31:43;13.50;99.90
45137;DHT22;30894;51.740;19.498;2022-10-16T04:34:12;13.50;99.90
45137;DHT22;30894;51.740;19.498;2022-10-16T04:36:47;13.60;99.90
45137;DHT22;30894;51.740;19.498;2022-10-16T04:39:14;13.60;99.90
45137;DHT22;30894;51.740;19.498;2022-10-16T04:41:48;13.60;99.90
45137;DHT22;30894;51.740;19.498;2022-10-16T04:44:17;13.70;99.90
45137;DHT22;30894;51.740;19.498;2022-10-16T04:46:51;13.70;99.90
45137;DHT22;30894;51.740;19.498;2022-10-16T04:49:19;13.70;99.90
45137;DHT22;30894;51.740;19.498;2022-10-16T04:51:54;13.70;99.90
45137;DHT22;30894;51.740;19.498;2022-10-16T04:54:22;13.80;99.90
45137;DHT22;30894;51.740;19.498;2022-10-16T04:56:56;13.80;99.90
45137;DHT22;30894;51.740;19.498;2022-10-16T04:59:29;13.80;99.90
45137;DHT22;30894;51.740;19.498;2022-10-16T05:01:58;13.80;99.90
45137;DHT22;30894;51.740;19.498;2022-10-16T05:04:33;13.80;99.90
45137;DHT22;30894;51.740;19.498;2022-10-16T05:06:59;13.80;99.90
45137;DHT22;30894;51.740;19.498;2022-10-16T05:09:32;13.90;99.90
45137;DHT22;30894;51.740;19.498;2022-10-16T05:12:06;13.90;99.90
45137;DHT22;30894;51.740;19.498;2022-10-16T05:14:34;13.90;99.90
45137;DHT22;30894;51.740;19.498;2022-10-16T05:17:08;14.00;99.90
45137;DHT22;30894;51.740;19.498;2022-10-16T05:19:37;13.90;99.90
45137;DHT22;30894;51.740;19.498;2022-10-16T05:22:12;14.00;99.90
45137;DHT22;30894;51.740;19.498;2022-10-16T05:24:40;14.00;99.90
45137;DHT22;30894;51.740;19.498;2022-10-16T05:27:22;14.00;99.90
45137;DHT22;30894;51.740;19.498;2022-10-16T05:29:50;14.00;99.90
45137;DHT22;30894;51.740;19.498;2022-10-16T05:32:31;14.00;99.90
45137;DHT22;30894;51.740;19.498;2022-10-16T05:34:59;14.10;99.90
45137;DHT22;30894;51.740;19.498;2022-10-16T05:37:32;14.10;99.90
45137;DHT22;30894;51.740;19.498;2022-10-16T05:40:06;14.10;99.90
45137;DHT22;30894;51.740;19.498;2022-10-16T05:42:33;14.10;99.90
45137;DHT22;30894;51.740;19.498;2022-10-16T05:45:10;14.10;99.90
45137;DHT22;30894;51.740;19.498;2022-10-16T05:47:38;14.10;99.90
45137;DHT22;30894;51.740;19.498;2022-10-16T05:50:13;14.20;99.90
45137;DHT22;30894;51.740;19.498;2022-10-16T05:52:39;14.20;99.90
45137;DHT22;30894;51.740;19.498;2022-10-16T05:55:13;14.20;99.90
45137;DHT22;30894;51.740;19.498;2022-10-16T05:57:41;14.20;99.90
45137;DHT22;30894;51.740;19.498;2022-10-16T06:00:17;14.30;99.90
45137;DHT22;30894;51.740;19.498;2022-10-16T06:02:45;14.30;99.90
45137;DHT22;30894;51.740;19.498;2022-10-16T06:05:20;14.30;99.90
45137;DHT22;30894;51.740;19.498;2022-10-16T06:07:49;14.40;99.90
45137;DHT22;30894;51.740;19.498;2022-10-16T06:10:23;14.40;99.90
45137;DHT22;30894;51.740;19.498;2022-10-16T06:12:49;14.50;99.90
45137;DHT22;30894;51.740;19.498;2022-10-16T06:15:23;14.50;99.90
45137;DHT22;30894;51.740;19.498;2022-10-16T06:17:56;14.60;99.90
45137;DHT22;30894;51.740;19.498;2022-10-16T06:20:26;14.70;99.90
45137;DHT22;30894;51.740;19.498;2022-10-16T06:22:55;14.70;99.90
45137;DHT22;30894;51.740;19.498;2022-10-16T06:25:30;14.80;99.90
45137;DHT22;30894;51.740;19.498;2022-10-16T06:28:00;14.90;99.90
45137;DHT22;30894;51.740;19.498;2022-10-16T06:30:34;15.20;99.90
45137;DHT22;30894;51.740;19.498;2022-10-16T06:33:02;15.50;99.90
45137;DHT22;30894;51.740;19.498;2022-10-16T06:35:36;15.70;99.90
45137;DHT22;30894;51.740;19.498;2022-10-16T06:38:05;15.90;99.90
45137;DHT22;30894;51.740;19.498;2022-10-16T06:40:39;16.30;99.60
45137;DHT22;30894;51.740;19.498;2022-10-16T06:43:07;16.70;98.50
45137;DHT22;30894;51.740;19.498;2022-10-16T06:45:40;17.00;97.70
45137;DHT22;30894;51.740;19.498;2022-10-16T06:48:09;17.40;96.70
45137;DHT22;30894;51.740;19.498;2022-10-16T06:50:43;17.70;95.50
45137;DHT22;30894;51.740;19.498;2022-10-16T06:53:12;17.80;95.00
45137;DHT22;30894;51.740;19.498;2022-10-16T06:55:40;17.80;94.80
45137;DHT22;30894;51.740;19.498;2022-10-16T06:58:17;17.90;94.60
45137;DHT22;30894;51.740;19.498;2022-10-16T07:00:55;17.90;94.40
45137;DHT22;30894;51.740;19.498;2022-10-16T07:03:38;17.90;94.30
45137;DHT22;30894;51.740;19.498;2022-10-16T07:06:07;18.00;94.20
45137;DHT22;30894;51.740;19.498;2022-10-16T07:08:39;18.20;93.90
45137;DHT22;30894;51.740;19.498;2022-10-16T07:11:14;18.10;93.80
45137;DHT22;30894;51.740;19.498;2022-10-16T07:13:53;18.00;94.00
45137;DHT22;30894;51.740;19.498;2022-10-16T07:16:30;18.00;94.30
45137;DHT22;30894;51.740;19.498;2022-10-16T07:18:59;18.20;94.10
45137;DHT22;30894;51.740;19.498;2022-10-16T07:21:30;18.50;93.60
45137;DHT22;30894;51.740;19.498;2022-10-16T07:24:01;18.70;93.00
45137;DHT22;30894;51.740;19.498;2022-10-16T07:26:32;18.60;92.80
45137;DHT22;30894;51.740;19.498;2022-10-16T07:29:01;18.50;92.90
45137;DHT22;30894;51.740;19.498;2022-10-16T07:31:36;18.40;93.20
45137;DHT22;30894;51.740;19.498;2022-10-16T07:34:06;18.40;93.30
45137;DHT22;30894;51.740;19.498;2022-10-16T07:36:41;18.60;93.20
45137;DHT22;30894;51.740;19.498;2022-10-16T07:39:07;19.00;92.70
45137;DHT22;30894;51.740;19.498;2022-10-16T07:41:41;19.40;91.80
45137;DHT22;30894;51.740;19.498;2022-10-16T07:44:10;19.70;91.30
45137;DHT22;30894;51.740;19.498;2022-10-16T07:46:39;20.00;90.60
45137;DHT22;30894;51.740;19.498;2022-10-16T07:49:15;20.30;90.10
45137;DHT22;30894;51.740;19.498;2022-10-16T07:51:48;20.50;89.00
45137;DHT22;30894;51.740;19.498;2022-10-16T07:54:17;20.60;88.40
45137;DHT22;30894;51.740;19.498;2022-10-16T07:56:48;20.50;88.20
45137;DHT22;30894;51.740;19.498;2022-10-16T07:59:21;20.40;88.40
45137;DHT22;30894;51.740;19.498;2022-10-16T08:01:49;20.30;89.50
45137;DHT22;30894;51.740;19.498;2022-10-16T08:04:23;20.10;89.10
45137;DHT22;30894;51.740;19.498;2022-10-16T08:06:56;20.10;89.40
45137;DHT22;30894;51.740;19.498;2022-10-16T08:09:25;20.10;89.60
45137;DHT22;30894;51.740;19.498;2022-10-16T08:11:58;20.00;89.80
45137;DHT22;30894;51.740;19.498;2022-10-16T08:14:27;19.90;89.90
45137;DHT22;30894;51.740;19.498;2022-10-16T08:16:57;19.90;90.00
45137;DHT22;30894;51.740;19.498;2022-10-16T08:19:32;19.90;90.00
45137;DHT22;30894;51.740;19.498;2022-10-16T08:22:03;19.80;90.10
45137;DHT22;30894;51.740;19.498;2022-10-16T08:24:32;19.80;90.20
45137;DHT22;30894;51.740;19.498;2022-10-16T08:27:03;19.80;90.20
45137;DHT22;30894;51.740;19.498;2022-10-16T08:29:35;19.70;90.30
45137;DHT22;30894;51.740;19.498;2022-10-16T08:32:04;19.80;90.40
45137;DHT22;30894;51.740;19.498;2022-10-16T08:34:38;19.80;90.30
45137;DHT22;30894;51.740;19.498;2022-10-16T08:37:12;19.90;90.30
45137;DHT22;30894;51.740;19.498;2022-10-16T08:39:42;19.90;90.20
45137;DHT22;30894;51.740;19.498;2022-10-16T08:42:23;20.00;90.10
45137;DHT22;30894;51.740;19.498;2022-10-16T08:45:25;20.00;90.00
45137;DHT22;30894;51.740;19.498;2022-10-16T08:50:50;19.90;90.10
45137;DHT22;30894;51.740;19.498;2022-10-16T08:53:24;19.90;90.20
45137;DHT22;30894;51.740;19.498;2022-10-16T08:56:06;19.80;90.40
45137;DHT22;30894;51.740;19.498;2022-10-16T08:58:34;19.60;90.50
45137;DHT22;30894;51.740;19.498;2022-10-16T09:01:13;19.50;90.70
45137;DHT22;30894;51.740;19.498;2022-10-16T09:12:31;19.50;91.00
45137;DHT22;30894;51.740;19.498;2022-10-16T09:15:32;19.80;90.80
45137;DHT22;30894;51.740;19.498;2022-10-16T09:23:54;20.80;88.30
45137;DHT22;30894;51.740;19.498;2022-10-16T09:26:23;20.80;87.80
45137;DHT22;30894;51.740;19.498;2022-10-16T09:28:52;20.80;87.60
45137;DHT22;30894;51.740;19.498;2022-10-16T09:31:26;20.70;87.70
45137;DHT22;30894;51.740;19.498;2022-10-16T09:34:00;20.60;87.80
45137;DHT22;30894;51.740;19.498;2022-10-16T09:36:44;20.70;88.00
45137;DHT22;30894;51.740;19.498;2022-10-16T09:39:12;20.90;87.70
45137;DHT22;30894;51.740;19.498;2022-10-16T09:41:44;21.10;87.10
45137;DHT22;30894;51.740;19.498;2022-10-16T09:44:31;21.20;86.60
45137;DHT22;30894;51.740;19.498;2022-10-16T09:47:05;21.40;86.10
45137;DHT22;30894;51.740;19.498;2022-10-16T09:50:20;21.40;85.90
45137;DHT22;30894;51.740;19.498;2022-10-16T09:53:22;21.30;86.00
45137;DHT22;30894;51.740;19.498;2022-10-16T09:55:56;21.30;86.10
45137;DHT22;30894;51.740;19.498;2022-10-16T09:58:25;21.30;86.30
45137;DHT22;30894;51.740;19.498;2022-10-16T10:00:59;21.30;86.30
45137;DHT22;30894;51.740;19.498;2022-10-16T10:06:55;22.00;85.10
45137;DHT22;30894;51.740;19.498;2022-10-16T10:09:37;23.10;82.20
45137;DHT22;30894;51.740;19.498;2022-10-16T10:12:19;24.30;79.20
45137;DHT22;30894;51.740;19.498;2022-10-16T10:14:54;25.40;76.10
45137;DHT22;30894;51.740;19.498;2022-10-16T10:17:53;25.60;74.50
45137;DHT22;30894;51.740;19.498;2022-10-16T10:20:27;25.60;74.50
45137;DHT22;30894;51.740;19.498;2022-10-16T10:23:00;25.60;74.00
45137;DHT22;30894;51.740;19.498;2022-10-16T10:28:50;25.40;74.60
45137;DHT22;30894;51.740;19.498;2022-10-16T10:37:27;25.30;74.80
45137;DHT22;30894;51.740;19.498;2022-10-16T10:46:14;26.40;73.00
45137;DHT22;30894;51.740;19.498;2022-10-16T10:54:58;26.20;73.20
45137;DHT22;30894;51.740;19.498;2022-10-16T11:01:13;27.20;71.70
45137;DHT22;30894;51.740;19.498;2022-10-16T11:07:36;28.00;69.60
45137;DHT22;30894;51.740;19.498;2022-10-16T11:10:15;27.80;69.90
45137;DHT22;30894;51.740;19.498;2022-10-16T11:13:31;28.30;69.40
45137;DHT22;30894;51.740;19.498;2022-10-16T11:16:03;29.00;68.30
45137;DHT22;30894;51.740;19.498;2022-10-16T11:18:47;29.40;67.50
45137;DHT22;30894;51.740;19.498;2022-10-16T11:21:24;29.40;67.10
45137;DHT22;30894;51.740;19.498;2022-10-16T11:23:55;29.10;67.20
45137;DHT22;30894;51.740;19.498;2022-10-16T11:26:40;28.60;68.00
45137;DHT22;30894;51.740;19.498;2022-10-16T11:29:16;28.00;69.00
45137;DHT22;30894;51.740;19.498;2022-10-16T11:32:00;27.40;69.90
45137;DHT22;30894;51.740;19.498;2022-10-16T11:34:41;26.70;71.30
45137;DHT22;30894;51.740;19.498;2022-10-16T11:37:16;26.30;72.40
45137;DHT22;30894;51.740;19.498;2022-10-16T11:39:45;25.90;73.10
45137;DHT22;30894;51.740;19.498;2022-10-16T11:42:22;25.70;73.60
45137;DHT22;30894;51.740;19.498;2022-10-16T11:47:57;25.60;73.70
45137;DHT22;30894;51.740;19.498;2022-10-16T11:50:45;25.50;74.10
45137;DHT22;30894;51.740;19.498;2022-10-16T11:56:30;25.30;74.00
45137;DHT22;30894;51.740;19.498;2022-10-16T11:59:13;25.10;74.40
45137;DHT22;30894;51.740;19.498;2022-10-16T12:01:51;24.80;74.80
45137;DHT22;30894;51.740;19.498;2022-10-16T12:04:45;24.60;75.30
45137;DHT22;30894;51.740;19.498;2022-10-16T12:07:34;24.40;75.70
45137;DHT22;30894;51.740;19.498;2022-10-16T12:10:22;24.00;76.20
45137;DHT22;30894;51.740;19.498;2022-10-16T12:12:50;23.70;76.80
45137;DHT22;30894;51.740;19.498;2022-10-16T12:17:56;23.40;77.70
45137;DHT22;30894;51.740;19.498;2022-10-16T12:20:31;23.40;77.90
45137;DHT22;30894;51.740;19.498;2022-10-16T12:23:05;23.60;77.60
45137;DHT22;30894;51.740;19.498;2022-10-16T12:25:36;23.70;77.20
45137;DHT22;30894;51.740;19.498;2022-10-16T12:30:41;23.70;76.80
45137;DHT22;30894;51.740;19.498;2022-10-16T12:33:25;23.60;77.00
45137;DHT22;30894;51.740;19.498;2022-10-16T12:35:53;23.50;77.20
45137;DHT22;30894;51.740;19.498;2022-10-16T12:38:57;23.50;77.30
45137;DHT22;30894;51.740;19.498;2022-10-16T12:41:35;23.60;77.20
45137;DHT22;30894;51.740;19.498;2022-10-16T12:44:20;23.60;77.00
45137;DHT22;30894;51.740;19.498;2022-10-16T12:46:51;23.70;77.00
45137;DHT22;30894;51.740;19.498;2022-10-16T12:49:31;23.60;76.90
45137;DHT22;30894;51.740;19.498;2022-10-16T12:52:00;23.60;76.90
45137;DHT22;30894;51.740;19.498;2022-10-16T12:54:35;23.60;77.10
45137;DHT22;30894;51.740;19.498;2022-10-16T13:00:23;23.60;77.10
45137;DHT22;30894;51.740;19.498;2022-10-16T13:03:21;23.60;77.10
45137;DHT22;30894;51.740;19.498;2022-10-16T13:17:31;24.30;75.60
45137;DHT22;30894;51.740;19.498;2022-10-16T13:28:32;23.10;77.60
45137;DHT22;30894;51.740;19.498;2022-10-16T13:31:01;22.90;78.20
45137;DHT22;30894;51.740;19.498;2022-10-16T13:33:39;22.70;78.50
45137;DHT22;30894;51.740;19.498;2022-10-16T13:36:20;22.60;78.70
45137;DHT22;30894;51.740;19.498;2022-10-16T13:38:48;22.50;79.00
45137;DHT22;30894;51.740;19.498;2022-10-16T13:41:17;22.40;79.30
45137;DHT22;30894;51.740;19.498;2022-10-16T13:43:48;22.30;79.40
45137;DHT22;30894;51.740;19.498;2022-10-16T13:46:20;22.20;79.60
45137;DHT22;30894;51.740;19.498;2022-10-16T13:49:01;22.10;79.80
45137;DHT22;30894;51.740;19.498;2022-10-16T13:51:32;22.00;80.10
45137;DHT22;30894;51.740;19.498;2022-10-16T13:53:59;21.90;80.30
45137;DHT22;30894;51.740;19.498;2022-10-16T13:56:31;21.80;80.40
45137;DHT22;30894;51.740;19.498;2022-10-16T13:59:04;21.80;80.60
45137;DHT22;30894;51.740;19.498;2022-10-16T14:01:43;21.70;80.80
45137;DHT22;30894;51.740;19.498;2022-10-16T14:04:11;21.60;81.00
45137;DHT22;30894;51.740;19.498;2022-10-16T14:06:45;21.50;81.20
45137;DHT22;30894;51.740;19.498;2022-10-16T14:09:26;21.40;81.30
45137;DHT22;30894;51.740;19.498;2022-10-16T14:12:03;21.40;81.40
45137;DHT22;30894;51.740;19.498;2022-10-16T14:14:40;21.30;81.60
45137;DHT22;30894;51.740;19.498;2022-10-16T14:17:19;21.30;81.70
45137;DHT22;30894;51.740;19.498;2022-10-16T14:19:55;21.20;81.90
45137;DHT22;30894;51.740;19.498;2022-10-16T14:22:39;21.10;82.10
45137;DHT22;30894;51.740;19.498;2022-10-16T14:25:24;21.00;82.40
45137;DHT22;30894;51.740;19.498;2022-10-16T14:28:18;20.90;82.60
45137;DHT22;30894;51.740;19.498;2022-10-16T14:30:57;20.80;82.80
45137;DHT22;30894;51.740;19.498;2022-10-16T14:36:12;20.80;83.10
45137;DHT22;30894;51.740;19.498;2022-10-16T14:38:40;20.90;82.80
45137;DHT22;30894;51.740;19.498;2022-10-16T14:41:09;20.90;82.80
45137;DHT22;30894;51.740;19.498;2022-10-16T14:43:42;20.80;82.80
45137;DHT22;30894;51.740;19.498;2022-10-16T14:46:13;20.80;83.00
45137;DHT22;30894;51.740;19.498;2022-10-16T14:48:42;20.70;83.20
45137;DHT22;30894;51.740;19.498;2022-10-16T14:51:27;20.60;83.50
45137;DHT22;30894;51.740;19.498;2022-10-16T14:54:03;20.50;83.80
45137;DHT22;30894;51.740;19.498;2022-10-16T14:56:34;20.40;84.00
45137;DHT22;30894;51.740;19.498;2022-10-16T15:01:57;20.30;84.50
45137;DHT22;30894;51.740;19.498;2022-10-16T15:04:24;20.20;84.70
45137;DHT22;30894;51.740;19.498;2022-10-16T15:06:52;20.10;84.90
45137;DHT22;30894;51.740;19.498;2022-10-16T15:09:18;20.10;85.10
45137;DHT22;30894;51.740;19.498;2022-10-16T15:11:45;20.00;85.30
45137;DHT22;30894;51.740;19.498;2022-10-16T15:14:13;19.90;85.50
45137;DHT22;30894;51.740;19.498;2022-10-16T15:16:40;19.80;85.80
45137;DHT22;30894;51.740;19.498;2022-10-16T15:19:07;19.70;86.10
45137;DHT22;30894;51.740;19.498;2022-10-16T15:21:33;19.60;86.40
45137;DHT22;30894;51.740;19.498;2022-10-16T15:24:00;19.50;86.70
45137;DHT22;30894;51.740;19.498;2022-10-16T15:26:28;19.40;87.00
45137;DHT22;30894;51.740;19.498;2022-10-16T15:28:55;19.30;87.30
45137;DHT22;30894;51.740;19.498;2022-10-16T15:31:21;19.20;87.70
45137;DHT22;30894;51.740;19.498;2022-10-16T15:33:54;19.10;88.00
45137;DHT22;30894;51.740;19.498;2022-10-16T15:36:36;19.00;88.40
45137;DHT22;30894;51.740;19.498;2022-10-16T15:39:13;18.80;88.80
45137;DHT22;30894;51.740;19.498;2022-10-16T15:41:46;18.70;89.20
45137;DHT22;30894;51.740;19.498;2022-10-16T15:44:20;18.50;89.60
45137;DHT22;30894;51.740;19.498;2022-10-16T15:46:54;18.40;90.00
45137;DHT22;30894;51.740;19.498;2022-10-16T15:49:21;18.30;90.30
45137;DHT22;30894;51.740;19.498;2022-10-16T15:51:49;18.00;90.50
45137;DHT22;30894;51.740;19.498;2022-10-16T15:54:19;17.90;90.80
45137;DHT22;30894;51.740;19.498;2022-10-16T15:56:48;17.70;91.10
45137;DHT22;30894;51.740;19.498;2022-10-16T15:59:15;17.60;91.50
45137;DHT22;30894;51.740;19.498;2022-10-16T16:01:44;17.50;91.80
45137;DHT22;30894;51.740;19.498;2022-10-16T16:04:12;17.40;92.20
45137;DHT22;30894;51.740;19.498;2022-10-16T16:06:38;17.30;92.50
45137;DHT22;30894;51.740;19.498;2022-10-16T16:09:13;17.10;92.90
45137;DHT22;30894;51.740;19.498;2022-10-16T16:11:40;17.00;93.30
45137;DHT22;30894;51.740;19.498;2022-10-16T16:14:12;16.90;93.70
45137;DHT22;30894;51.740;19.498;2022-10-16T16:16:39;16.80;94.20
45137;DHT22;30894;51.740;19.498;2022-10-16T16:19:14;16.70;94.70
45137;DHT22;30894;51.740;19.498;2022-10-16T16:21:46;16.70;95.50
45137;DHT22;30894;51.740;19.498;2022-10-16T16:24:13;16.60;95.60
45137;DHT22;30894;51.740;19.498;2022-10-16T16:26:42;16.60;96.10
45137;DHT22;30894;51.740;19.498;2022-10-16T16:29:14;16.60;96.00
45137;DHT22;30894;51.740;19.498;2022-10-16T16:31:44;16.60;96.30
45137;DHT22;30894;51.740;19.498;2022-10-16T16:34:19;16.50;96.50
45137;DHT22;30894;51.740;19.498;2022-10-16T16:36:55;16.50;96.90
45137;DHT22;30894;51.740;19.498;2022-10-16T16:39:23;16.50;96.90
45137;DHT22;30894;51.740;19.498;2022-10-16T16:41:54;16.40;97.00
45137;DHT22;30894;51.740;19.498;2022-10-16T16:44:25;16.40;97.10
45137;DHT22;30894;51.740;19.498;2022-10-16T16:46:56;16.40;97.20
45137;DHT22;30894;51.740;19.498;2022-10-16T22:31:15;14.80;99.90
45137;DHT22;30894;51.740;19.498;2022-10-16T22:33:44;14.90;99.90
45137;DHT22;30894;51.740;19.498;2022-10-16T22:36:12;15.00;99.90
45137;DHT22;30894;51.740;19.498;2022-10-16T22:38:39;15.00;99.90
45137;DHT22;30894;51.740;19.498;2022-10-16T22:41:09;15.10;99.90
45137;DHT22;30894;51.740;19.498;2022-10-16T22:43:38;15.10;99.90
45137;DHT22;30894;51.740;19.498;2022-10-16T22:46:09;15.10;99.90
45137;DHT22;30894;51.740;19.498;2022-10-16T22:48:38;15.20;99.90
45137;DHT22;30894;51.740;19.498;2022-10-16T22:51:06;15.20;99.90
45137;DHT22;30894;51.740;19.498;2022-10-16T22:53:33;15.20;99.90
45137;DHT22;30894;51.740;19.498;2022-10-16T22:55:59;15.20;99.90
45137;DHT22;30894;51.740;19.498;2022-10-16T22:58:26;15.20;99.90
45137;DHT22;30894;51.740;19.498;2022-10-16T23:00:52;15.20;99.90
45137;DHT22;30894;51.740;19.498;2022-10-16T23:03:18;15.20;99.90
45137;DHT22;30894;51.740;19.498;2022-10-16T23:05:44;15.20;99.90
45137;DHT22;30894;51.740;19.498;2022-10-16T23:08:11;15.20;99.90
45137;DHT22;30894;51.740;19.498;2022-10-16T23:10:39;15.20;99.90
45137;DHT22;30894;51.740;19.498;2022-10-16T23:13:06;15.30;99.90
45137;DHT22;30894;51.740;19.498;2022-10-16T23:15:38;15.30;99.90
45137;DHT22;30894;51.740;19.498;2022-10-16T23:18:06;15.30;99.90
45137;DHT22;30894;51.740;19.498;2022-10-16T23:20:34;15.30;99.90
45137;DHT22;30894;51.740;19.498;2022-10-16T23:23:04;15.40;99.90
45137;DHT22;30894;51.740;19.498;2022-10-16T23:25:30;15.30;99.90
45137;DHT22;30894;51.740;19.498;2022-10-16T23:27:56;15.40;99.90